Sea Leader — 9HA2250 — position and weather

sailwx.info

Track history (hours):
 
Tides and Currents Weather Stations Pressure Air Temp Water Temp Dewpoint Dewpoint Depression Visibility Wind Speed Wind Dir Waves Ship Positions

Sea Leader

Last reported at 2018-Apr-05 03:44 UTC. Time now 2018-Apr-19 10:26 UTC.
Position N 36°57' E 023°26'.
Warning: this ship's position is 14 days out of date.

Length 128 m; draft 4.5 m.

Type: Cargo ship. MMSI: 229939000.

Date/timePositionNaut miles runAvg speedWind from/ knotsBaromVisibWave heightAir tempDewpointWater temp
2018-Apr-05 03:44N 36°57' E 023°26'2 9.5
2018-Apr-05 03:30N 36°58' E 023°28'5 9.9
2018-Apr-05 03:00N 37°02' E 023°32'5 9.8
2018-Apr-05 02:30N 37°06' E 023°36'5 9.7
2018-Apr-05 02:00N 37°09' E 023°40'5 9.6
2018-Apr-05 01:30N 37°13' E 023°44'5 9.7
2018-Apr-05 01:00N 37°16' E 023°48'5 9.6
2018-Apr-05 00:25N 37°21' E 023°52'180 9.4
2018-Apr-04 05:18N 39°55' E 025°50'3 9.5
2018-Apr-04 05:00N 39°58' E 025°52'  
2018-Mar-31 19:55N 45°08' E 036°29'3 7.9
2018-Mar-31 19:30N 45°11' E 036°28'4 7.8
2018-Mar-31 19:01N 45°15' E 036°28'3 6.1
2018-Mar-31 18:30N 45°18' E 036°29'4 7.9
2018-Mar-31 18:01N 45°20' E 036°34'4 7.7
2018-Mar-31 17:30N 45°21' E 036°39'4 7.7
2018-Mar-31 17:00N 45°25' E 036°41'2 4.7
2018-Mar-31 16:29N 45°27' E 036°42'3 6.0
2018-Mar-31 16:00N 45°29' E 036°46'3 6.4
2018-Mar-31 15:29N 45°30' E 036°50'  
2018-Mar-27 23:07N 45°32' E 036°53'1 7.9
2018-Mar-27 23:00N 45°32' E 036°52'4 7.7
2018-Mar-27 22:30N 45°31' E 036°46'4 7.7
2018-Mar-27 22:01N 45°28' E 036°44'4 7.7
2018-Mar-27 21:30N 45°24' E 036°41'4 7.7
2018-Mar-27 21:01N 45°21' E 036°39'510.2
2018-Mar-27 20:31N 45°19' E 036°32'4 8.5
2018-Mar-27 20:01N 45°15' E 036°28'3 5.4
2018-Mar-27 19:30N 45°13' E 036°29'1 2.6
2018-Mar-27 19:00N 45°12' E 036°30'0 0.1
2018-Mar-27 18:29N 45°12' E 036°30'0 0.0
2018-Mar-27 18:01N 45°12' E 036°30'0 0.0
2018-Mar-27 17:31N 45°12' E 036°30'3 5.6
2018-Mar-27 17:01N 45°09' E 036°30'5 9.2
2018-Mar-27 16:30N 45°04' E 036°30'  
Track history (hours):
 
Tides and Currents Weather Stations Pressure Air Temp Water Temp Dewpoint Dewpoint Depression Visibility Wind Speed Wind Dir Waves Ship Positions

Sea Leader

Last reported at 2018-Apr-05 03:44 UTC. Time now 2018-Apr-19 10:26 UTC.
Position N 36°57' E 023°26'.
Warning: this ship's position is 14 days out of date.

Length 128 m; draft 4.5 m.

Type: Cargo ship. MMSI: 229939000.

Date/timePositionNaut miles runAvg speedWind from/ knotsBaromVisibWave heightAir tempDewpointWater temp
2018-Apr-05 03:44N 36°57' E 023°26'2 9.5
2018-Apr-05 03:30N 36°58' E 023°28'5 9.9
2018-Apr-05 03:00N 37°02' E 023°32'5 9.8
2018-Apr-05 02:30N 37°06' E 023°36'5 9.7
2018-Apr-05 02:00N 37°09' E 023°40'5 9.6
2018-Apr-05 01:30N 37°13' E 023°44'5 9.7
2018-Apr-05 01:00N 37°16' E 023°48'5 9.6
2018-Apr-05 00:25N 37°21' E 023°52'180 9.4
2018-Apr-04 05:18N 39°55' E 025°50'3 9.5
2018-Apr-04 05:00N 39°58' E 025°52'  
2018-Mar-31 19:55N 45°08' E 036°29'3 7.9
2018-Mar-31 19:30N 45°11' E 036°28'4 7.8
2018-Mar-31 19:01N 45°15' E 036°28'3 6.1
2018-Mar-31 18:30N 45°18' E 036°29'4 7.9
2018-Mar-31 18:01N 45°20' E 036°34'4 7.7
2018-Mar-31 17:30N 45°21' E 036°39'4 7.7
2018-Mar-31 17:00N 45°25' E 036°41'2 4.7
2018-Mar-31 16:29N 45°27' E 036°42'3 6.0
2018-Mar-31 16:00N 45°29' E 036°46'3 6.4
2018-Mar-31 15:29N 45°30' E 036°50'  
2018-Mar-27 23:07N 45°32' E 036°53'1 7.9
2018-Mar-27 23:00N 45°32' E 036°52'4 7.7
2018-Mar-27 22:30N 45°31' E 036°46'4 7.7
2018-Mar-27 22:01N 45°28' E 036°44'4 7.7
2018-Mar-27 21:30N 45°24' E 036°41'4 7.7
2018-Mar-27 21:01N 45°21' E 036°39'510.2
2018-Mar-27 20:31N 45°19' E 036°32'4 8.5
2018-Mar-27 20:01N 45°15' E 036°28'3 5.4
2018-Mar-27 19:30N 45°13' E 036°29'1 2.6
2018-Mar-27 19:00N 45°12' E 036°30'0 0.1
2018-Mar-27 18:29N 45°12' E 036°30'0 0.0
2018-Mar-27 18:01N 45°12' E 036°30'0 0.0
2018-Mar-27 17:31N 45°12' E 036°30'3 5.6
2018-Mar-27 17:01N 45°09' E 036°30'5 9.2
2018-Mar-27 16:30N 45°04' E 036°30'  

Dump ship's entire track history